Thursday, August 16, 2018, 12:02 AM EDT
Back to Local

KPNE, N.e. Philadelphia Airport

Location: Philadelphia, PA, United States Lat: 40.083
Local Time: 12:02 AM EDT ( 4:02 GMT) Lon: -75.017
Time Zone: US/Eastern Elev: 121 ft

Show me the last for .
Show Coded

Time T Td Feel RH Dir Speed Gust Alt SLP Vis Weather Sky Remarks
2018-08-15 22:54 81 68 84 64 250° 8 - 30.02 30.01 10 CLR None
2018-08-15 21:54 82 68 85 62 250° 5 - 30.02 30.01 10 CLR None
2018-08-15 20:54 83 67 86 58 250° 7 - 30.00 29.99 10 CLR None
2018-08-15 19:54 85 67 88 55 250° 7 - 29.98 29.98 10 CLR 6-hr Min Temp (8pm): 84.9°F
6-hr Max Temp (8pm): 90.0°F
2018-08-15 18:54 86 67 90 53 260° 9 - 29.97 29.96 10 CLR None
2018-08-15 17:54 88 67 92 49 280° 8 - 29.96 29.96 10 CLR None
2018-08-15 16:54 90 66 94 45 280° 9 - 29.96 29.95 10 FEW055 None
2018-08-15 15:54 90 66 94 45 300° 9 - 29.96 29.96 10 FEW055 None
2018-08-15 14:54 90 64 93 42 280° 10 - 29.97 29.96 10 CLR None
2018-08-15 13:54 89 66 93 46 290° 12 - 29.97 29.97 10 CLR 6-hr Min Temp (2pm): 75.9°F
6-hr Max Temp (2pm): 89.1°F
2018-08-15 12:54 88 68 93 51 280° 8 - 29.97 29.97 10 CLR None
2018-08-15 11:54 86 68 90 55 280° 12 - 29.98 29.97 10 CLR None
2018-08-15 10:54 84 68 88 58 290° 9 - 29.98 29.97 10 CLR None
2018-08-15 09:54 82 67 85 60 300° 6 - 29.97 29.96 10 CLR None
2018-08-15 08:54 79 66 82 64 320° 8 - 29.96 29.95 10 CLR None
2018-08-15 07:54 76 66 79 71 290° 12 - 29.94 29.94 10 FEW080 SCT100 24-hr Precip Total (8am): 0.58"
6-hr Min Temp (8am): 71.1°F
6-hr Max Temp (8am): 75.9°F
2018-08-15 06:54 74 65 77 73 280° 8 - 29.93 29.93 10 FEW085 None
2018-08-15 05:54 73 65 77 75 280° 8 - 29.91 29.90 10 BKN100 None
2018-08-15 04:54 73 65 77 75 290° 9 - 29.91 29.90 10 FEW080 BKN100 None
2018-08-15 03:54 72 66 76 81 250° 5 - 29.91 29.90 10 FEW060 BKN120 None
2018-08-15 02:54 72 66 76 81 250° 5 - 29.91 29.90 10 BKN060 OVC110 None
2018-08-15 01:54 73 66 77 78 230° 6 - 29.91 29.90 10 FEW090 6-hr Precip Total (2am): 0.01"
6-hr Min Temp (2am): 72.0°F
6-hr Max Temp (2am): 73.9°F
2018-08-15 00:54 73 66 77 78 250° 8 - 29.91 29.90 10 BKN060 BKN110 24-hr Min Temp (1am): 69.1°F
24-hr Max Temp (1am): 84.9°F

Support USWX by starting your Amazon purchase here.